Airfield :
LOGIN :

Register | Disclaimer

   EN    FR    IT 

 










Legend :    VFR   Marginal VFR   IFR   Intensive IFR   Very Intensive IFR
Visi :
Ceiling :
>= 8 km
>= 3000ft
5 to 8 km
1000 to 3000 ft
1500m to 5 km
500 to 1000 ft
800 to 1500m
200 to 500 ft
< 800m
< 200 ft
Symbols :   Thunderstorms  Fog  Heavy snow  Heavy precipitations  Wind > 20 kt
SIGMETs :     Misc.  Thunderstorms  Icing  Turbulence  Mountain Waves  Volcanic Ashes







- Airport Elevation : 383 ft
- IATA code : UDJ


UKLU - Uzhhorod

CURRENT METAR :
  • 211700Z 00000MPS 1300 BR OVC025 11/11 Q1016 NOSIG

EXPIRED METARs :
  • 211600Z 00000MPS 1300 BR OVC033 11/10 Q1015 NOSIG
  • 211500Z VRB02MPS 2700 BR OVC042 12/10 Q1015 R10/290060 NOSIG
  • 211430Z 10002MPS 2100 -RA BR OVC043 12/10 Q1015 R10/290060 NOSIG

TAF TAF UKLU
Valid from the 21 at 15:00 until the 22 at 00:00 UTC


211410Z 2115/2124 VRB02MPS 4000 -RA BR OVC030
TEMPO 2115/2121 30005MPS 2000 -SHRA BR BKN007 BKN015CB TX09/2115Z TN05/2124Z
No reported NOTAMs for that airfield.



MET'MAP, your aeronautical weather chart ! - Copyright ORBIFLY December 2007 - Disclaimer

ORBIFLY MET'MAP TEAM :

Programming & Development : Alexandra Zaïnal
Concept & Development : Baudouin d'Aumeries
Co-Development & Prog : Marc-Olivier Méhu
Technical & hardware support : Manuel Goepfert

Contact : metmap@orbifly.com




SOURCES & CREDITS :

   NOAA